Time;durP1;ratioP1;P1;durP2;ratioP2;P2;SDS_P1;SDS_P2;PMS_P1;PMS_P2;Temp;Humidity;BMP_temperature;BMP_pressure;BME280_temperature;BME280_humidity;BME280_pressure;Samples;Min_cycle;Max_cycle;Signal;HPM_P1;HPM_P2
2022/04/19 00:02:01;;;;;;;9.23;7.32;;;9.30;99.90;;;;;;5014365;28;20038;-80
2022/04/19 00:04:27;;;;;;;8.85;6.82;;;9.20;99.90;;;;;;4998233;28;20056;-80
2022/04/19 00:06:53;;;;;;;10.73;7.28;;;9.10;99.90;;;;;;5014328;28;20049;-80
2022/04/19 00:09:19;;;;;;;8.85;6.03;;;9.00;99.90;;;;;;5014160;28;20050;-80
2022/04/19 00:11:44;;;;;;;8.38;6.25;;;8.90;99.90;;;;;;5014389;28;20056;-80
2022/04/19 00:14:10;;;;;;;10.23;6.93;;;8.90;99.90;;;;;;5014376;28;20038;-80
2022/04/19 00:16:36;;;;;;;8.73;6.63;;;8.80;99.90;;;;;;5015576;28;20050;-80
2022/04/19 00:19:02;;;;;;;7.95;5.78;;;8.70;99.90;;;;;;5014038;28;20046;-80
2022/04/19 00:21:28;;;;;;;7.85;5.78;;;8.60;99.90;;;;;;4997877;28;20093;-80
2022/04/19 00:23:54;;;;;;;7.88;6.03;;;8.60;99.90;;;;;;5014062;28;20085;-80
2022/04/19 00:26:21;;;;;;;9.80;6.00;;;8.70;99.90;;;;;;4997878;28;20057;-80
2022/04/19 00:28:46;;;;;;;8.27;5.30;;;8.60;99.90;;;;;;5014742;28;20348;-80
2022/04/19 00:31:12;;;;;;;9.00;5.93;;;8.60;99.90;;;;;;5015260;28;20046;-80
2022/04/19 00:33:44;;;;;;;8.02;6.30;;;8.50;99.90;;;;;;5014029;28;20046;-80
2022/04/19 00:36:10;;;;;;;9.00;6.95;;;8.50;99.90;;;;;;5014575;28;20060;-80
2022/04/19 00:38:36;;;;;;;15.30;8.20;;;8.10;99.90;;;;;;5015416;28;20060;-80
2022/04/19 00:41:01;;;;;;;12.25;8.00;;;7.90;99.90;;;;;;5014696;28;20531;-80
2022/04/19 00:43:28;;;;;;;11.93;8.07;;;7.70;99.90;;;;;;5015248;28;20050;-80
2022/04/19 00:45:53;;;;;;;14.30;9.25;;;7.60;99.90;;;;;;5013866;28;20056;-80
2022/04/19 00:48:21;;;;;;;12.55;8.57;;;8.00;99.90;;;;;;5014577;28;20471;-80
2022/04/19 00:50:50;;;;;;;11.32;8.52;;;7.50;99.90;;;;;;4997706;28;20054;-80
2022/04/19 00:53:18;;;;;;;13.30;8.20;;;7.60;99.90;;;;;;5015165;28;20132;-80
2022/04/19 00:55:45;;;;;;;11.48;7.70;;;7.70;99.90;;;;;;5014644;28;20089;-79
2022/04/19 00:58:12;;;;;;;12.85;7.82;;;7.70;99.90;;;;;;5013604;28;20088;-80
2022/04/19 01:00:38;;;;;;;12.88;7.90;;;7.70;99.90;;;;;;5014558;28;20103;-80
2022/04/19 01:03:04;;;;;;;9.70;6.68;;;7.80;99.90;;;;;;5013542;28;20092;-80
2022/04/19 01:05:29;;;;;;;9.10;6.40;;;7.90;99.90;;;;;;5014969;28;20045;-80
2022/04/19 01:07:55;;;;;;;9.80;6.72;;;8.00;99.90;;;;;;5013483;28;20046;-80
2022/04/19 01:10:21;;;;;;;10.43;6.80;;;8.00;99.90;;;;;;5014104;28;20045;-80
2022/04/19 01:15:31;;;;;;;12.80;7.63;;;8.10;99.90;;;;;;4999705;28;20057;-80
2022/04/19 01:17:57;;;;;;;8.77;6.20;;;7.90;99.90;;;;;;5013079;28;20042;-80
2022/04/19 01:20:23;;;;;;;8.73;6.45;;;7.80;99.90;;;;;;5014232;28;20068;-80
2022/04/19 01:22:50;;;;;;;10.02;6.65;;;7.60;99.90;;;;;;5014224;28;20041;-79
2022/04/19 01:25:18;;;;;;;9.35;7.15;;;7.50;99.90;;;;;;5014135;28;20184;-79
2022/04/19 01:27:44;;;;;;;8.98;7.00;;;7.40;99.90;;;;;;5013070;28;20046;-80
2022/04/19 01:30:11;;;;;;;9.98;6.88;;;7.40;99.90;;;;;;5013370;28;20137;-80
2022/04/19 01:32:37;;;;;;;11.45;7.30;;;7.20;99.90;;;;;;5013064;28;20053;-80
2022/04/19 01:35:11;;;;;;;9.90;6.65;;;7.10;99.90;;;;;;4996744;28;20081;-80
2022/04/19 01:37:39;;;;;;;11.35;7.28;;;7.10;99.90;;;;;;5013226;28;20092;-79
2022/04/19 01:40:18;;;;;;;9.27;7.10;;;7.00;99.90;;;;;;5013751;28;20054;-81
2022/04/19 01:42:58;;;;;;;10.25;7.85;;;7.00;99.90;;;;;;5012734;28;20050;-80
2022/04/19 01:45:30;;;;;;;12.95;7.28;;;7.00;99.90;;;;;;5013660;28;20052;-80
2022/04/19 01:47:57;;;;;;;13.05;8.52;;;7.00;99.90;;;;;;5012784;28;20088;-80
2022/04/19 01:50:27;;;;;;;16.55;8.40;;;7.10;99.90;;;;;;5012806;28;20104;-80
2022/04/19 01:52:55;;;;;;;9.77;6.50;;;7.10;99.90;;;;;;5013564;28;20060;-80
2022/04/19 01:55:21;;;;;;;10.15;6.88;;;7.10;99.90;;;;;;5012442;28;20093;-80
2022/04/19 01:57:49;;;;;;;7.95;5.95;;;7.00;99.90;;;;;;5012493;28;20104;-80
2022/04/19 02:00:16;;;;;;;9.45;6.00;;;7.00;99.90;;;;;;5013497;28;20128;-80
2022/04/19 02:02:43;;;;;;;8.45;6.10;;;7.00;99.90;;;;;;5012418;28;20096;-80
2022/04/19 02:05:09;;;;;;;9.50;5.47;;;7.10;99.90;;;;;;5012743;28;20133;-80
2022/04/19 02:07:43;;;;;;;7.32;5.28;;;7.10;99.90;;;;;;5012661;28;20457;-80
2022/04/19 02:10:11;;;;;;;12.50;6.45;;;7.20;99.90;;;;;;5012664;28;20141;-80
2022/04/19 02:12:38;;;;;;;10.45;5.32;;;7.20;99.90;;;;;;5012384;28;20052;-80
2022/04/19 02:15:04;;;;;;;8.32;5.20;;;7.20;99.90;;;;;;5012905;28;20050;-81
2022/04/19 02:17:30;;;;;;;8.20;5.60;;;7.20;99.90;;;;;;5014081;28;20054;-80
2022/04/19 02:20:04;;;;;;;9.52;5.60;;;7.10;99.90;;;;;;5012597;28;20045;-80
2022/04/19 02:22:31;;;;;;;9.07;6.10;;;7.00;99.90;;;;;;5012225;28;20061;-80
2022/04/19 02:24:59;;;;;;;8.02;5.75;;;6.90;99.90;;;;;;4996941;28;20053;-80
2022/04/19 02:27:25;;;;;;;9.63;5.63;;;6.90;99.90;;;;;;5012368;28;20041;-80
2022/04/19 02:29:52;;;;;;;8.88;5.57;;;6.80;99.90;;;;;;4996113;28;20057;-80
2022/04/19 02:32:18;;;;;;;10.68;5.85;;;6.80;99.90;;;;;;5012157;28;20596;-80
2022/04/19 02:34:43;;;;;;;8.80;5.95;;;7.20;99.90;;;;;;5015731;28;20049;-80
2022/04/19 02:37:09;;;;;;;9.77;6.22;;;6.90;99.90;;;;;;4999947;28;20088;-80
2022/04/19 02:39:36;;;;;;;9.20;5.97;;;6.80;99.90;;;;;;5015901;28;20053;-80
2022/04/19 02:42:06;;;;;;;11.07;6.47;;;6.80;99.90;;;;;;5016301;28;20426;-80
2022/04/19 02:44:32;;;;;;;9.68;6.65;;;6.70;99.90;;;;;;5016123;28;20081;-80
2022/04/19 02:46:58;;;;;;;9.95;6.90;;;6.70;99.90;;;;;;5016855;28;20054;-80
2022/04/19 02:49:24;;;;;;;9.27;6.75;;;6.70;99.90;;;;;;5015942;28;20077;-80
2022/04/19 02:51:50;;;;;;;11.43;7.70;;;6.60;99.90;;;;;;5016013;28;20482;-80
2022/04/19 02:54:18;;;;;;;9.45;6.50;;;6.60;99.90;;;;;;5015633;28;20054;-80
2022/04/19 02:56:44;;;;;;;8.82;7.00;;;6.60;99.90;;;;;;5016839;28;20054;-80
2022/04/19 02:59:10;;;;;;;10.43;7.45;;;6.70;99.90;;;;;;5015840;28;20041;-80
2022/04/19 03:01:36;;;;;;;9.35;6.10;;;6.50;99.90;;;;;;5015649;28;20085;-80
2022/04/19 03:04:02;;;;;;;9.90;6.75;;;6.90;99.90;;;;;;5015771;28;20049;-80
2022/04/19 03:06:27;;;;;;;9.63;6.18;;;6.50;99.90;;;;;;5015987;28;20515;-80
2022/04/19 03:08:53;;;;;;;8.30;5.90;;;6.50;99.90;;;;;;5015888;28;20046;-80
2022/04/19 03:11:19;;;;;;;8.95;6.30;;;6.50;99.90;;;;;;5015237;28;20054;-80
2022/04/19 03:13:45;;;;;;;9.45;7.22;;;6.40;99.90;;;;;;5017083;28;20045;-81
2022/04/19 03:16:13;;;;;;;8.07;5.63;;;6.40;99.90;;;;;;5015795;28;20042;-80
2022/04/19 03:18:41;;;;;;;10.23;6.00;;;6.40;99.90;;;;;;4999145;28;20141;-80
2022/04/19 03:21:08;;;;;;;10.38;7.20;;;6.50;99.90;;;;;;4999391;28;20137;-80
2022/04/19 03:29:03;;;;;;;10.68;6.15;;;6.50;99.90;;;;;;5016126;28;20050;-80
2022/04/19 03:31:28;;;;;;;8.05;5.60;;;6.40;99.90;;;;;;5015225;28;20054;-80
2022/04/19 03:33:54;;;;;;;9.45;6.38;;;6.40;99.90;;;;;;5015172;28;20510;-80
2022/04/19 03:36:20;;;;;;;9.73;6.22;;;6.40;99.90;;;;;;5015827;28;20340;-80
2022/04/19 03:38:46;;;;;;;8.93;5.55;;;6.40;99.90;;;;;;5015027;28;20057;-80
2022/04/19 03:41:13;;;;;;;8.55;5.47;;;6.40;99.90;;;;;;4998709;28;20444;-80
2022/04/19 03:43:38;;;;;;;9.32;6.82;;;6.40;99.90;;;;;;5014369;28;20054;-80
2022/04/19 03:46:05;;;;;;;9.63;6.00;;;6.30;99.90;;;;;;5016137;28;20053;-81
2022/04/19 03:48:32;;;;;;;9.35;6.63;;;6.20;99.90;;;;;;5014984;28;20081;-81
2022/04/19 03:50:58;;;;;;;8.52;5.97;;;6.00;99.90;;;;;;4999333;28;20046;-80
2022/04/19 03:53:24;;;;;;;9.13;5.88;;;6.00;99.90;;;;;;5014566;28;20048;-80
2022/04/19 03:55:49;;;;;;;11.13;6.35;;;5.90;99.90;;;;;;5014540;28;20061;-81
2022/04/19 03:58:15;;;;;;;8.07;6.18;;;5.80;99.90;;;;;;5015892;28;20053;-80
2022/04/19 04:00:41;;;;;;;9.65;6.05;;;5.90;99.90;;;;;;5014946;28;20383;-81
2022/04/19 04:03:06;;;;;;;7.70;5.80;;;5.60;99.90;;;;;;4998313;28;20380;-80
2022/04/19 04:05:32;;;;;;;8.43;5.88;;;5.70;99.90;;;;;;5014569;28;20115;-81
2022/04/19 04:07:59;;;;;;;8.75;6.93;;;5.70;99.90;;;;;;5014521;28;20088;-80
2022/04/19 04:10:25;;;;;;;8.77;5.70;;;5.70;99.90;;;;;;5014507;28;20081;-81
2022/04/19 04:12:51;;;;;;;9.35;6.00;;;5.70;99.90;;;;;;5014469;28;20135;-81
2022/04/19 04:15:17;;;;;;;7.82;5.28;;;5.70;99.90;;;;;;5014105;28;20054;-81
2022/04/19 04:17:43;;;;;;;8.80;6.47;;;5.70;99.90;;;;;;5014365;28;20048;-81
2022/04/19 04:20:09;;;;;;;7.40;6.03;;;5.60;99.90;;;;;;4998857;28;20143;-81
2022/04/19 04:22:35;;;;;;;9.25;5.78;;;5.60;99.90;;;;;;4997787;28;20049;-81
2022/04/19 04:25:02;;;;;;;10.38;7.18;;;5.60;99.90;;;;;;5015200;28;20050;-80
2022/04/19 04:27:27;;;;;;;8.45;6.00;;;5.60;99.90;;;;;;5015122;28;20054;-81
2022/04/19 04:29:53;;;;;;;10.15;6.97;;;5.70;99.90;;;;;;5015111;28;20100;-81
2022/04/19 04:32:19;;;;;;;10.63;7.22;;;5.70;99.90;;;;;;4997778;28;20052;-81
2022/04/19 04:34:44;;;;;;;8.23;6.40;;;5.80;99.90;;;;;;4997822;28;20052;-80
2022/04/19 04:37:10;;;;;;;10.18;6.72;;;5.80;99.90;;;;;;5014783;28;20116;-80
2022/04/19 04:39:37;;;;;;;10.70;7.10;;;5.90;99.90;;;;;;4997892;28;20041;-80
2022/04/19 04:42:03;;;;;;;10.07;6.75;;;5.90;99.90;;;;;;5013899;28;20352;-80
2022/04/19 04:44:29;;;;;;;10.43;6.68;;;5.90;99.90;;;;;;5013888;28;20045;-81
2022/04/19 04:49:41;;;;;;;9.88;7.38;;;6.10;99.90;;;;;;4999994;28;20061;-81
2022/04/19 04:52:12;;;;;;;10.32;6.55;;;5.90;99.90;;;;;;4997830;28;20054;-81
2022/04/19 04:54:40;;;;;;;8.60;5.85;;;5.90;99.90;;;;;;5013245;28;20062;-81
2022/04/19 04:57:06;;;;;;;14.63;7.13;;;5.80;99.90;;;;;;5012900;28;20491;-81
2022/04/19 04:59:32;;;;;;;9.23;6.50;;;6.40;99.90;;;;;;5013668;28;20045;-80
2022/04/19 05:01:59;;;;;;;10.68;7.40;;;5.80;99.90;;;;;;5013192;28;20049;-81
2022/04/19 05:04:25;;;;;;;11.20;7.40;;;5.90;99.90;;;;;;5014251;28;20041;-81
2022/04/19 05:06:51;;;;;;;9.52;6.68;;;5.90;99.90;;;;;;5013526;28;20497;-81
2022/04/19 05:09:17;;;;;;;9.40;6.30;;;5.90;99.90;;;;;;5013678;28;20430;-81
2022/04/19 05:11:46;;;;;;;10.48;6.47;;;5.90;99.90;;;;;;4997057;28;20479;-81
2022/04/19 05:14:12;;;;;;;9.80;7.38;;;5.90;99.90;;;;;;4997058;28;20192;-81
2022/04/19 05:16:38;;;;;;;9.15;6.40;;;6.00;99.90;;;;;;5013330;28;20057;-81
2022/04/19 05:19:04;;;;;;;9.57;6.95;;;6.10;99.90;;;;;;5013193;28;20077;-81
2022/04/19 05:21:30;;;;;;;12.70;7.00;;;6.30;99.90;;;;;;4997313;28;20170;-81
2022/04/19 05:23:56;;;;;;;8.15;6.28;;;6.20;99.90;;;;;;5012914;28;20428;-81
2022/04/19 05:26:23;;;;;;;11.10;6.57;;;6.30;99.90;;;;;;4996741;28;20045;-81
2022/04/19 05:28:49;;;;;;;9.32;6.10;;;6.40;99.90;;;;;;4996923;28;20050;-81
2022/04/19 05:31:14;;;;;;;9.10;6.10;;;6.70;99.90;;;;;;4996699;28;20073;-80
2022/04/19 05:33:40;;;;;;;10.75;6.95;;;6.50;99.90;;;;;;5012996;28;20128;-80
2022/04/19 05:36:06;;;;;;;9.93;6.18;;;6.80;99.90;;;;;;4996719;28;20494;-81
2022/04/19 05:38:32;;;;;;;9.07;6.20;;;7.00;99.90;;;;;;5013032;28;20052;-81
2022/04/19 05:40:58;;;;;;;8.50;6.03;;;6.80;99.90;;;;;;4996256;28;20156;-80
2022/04/19 05:43:25;;;;;;;11.90;6.28;;;6.80;99.90;;;;;;4996467;28;20041;-81
2022/04/19 05:45:50;;;;;;;10.63;6.68;;;6.80;99.90;;;;;;5012770;28;20065;-80
2022/04/19 05:48:16;;;;;;;9.65;5.95;;;6.90;99.90;;;;;;4996553;28;20042;-81
2022/04/19 05:50:42;;;;;;;8.40;6.13;;;7.00;99.90;;;;;;4996301;28;20053;-80
2022/04/19 05:53:08;;;;;;;10.07;6.53;;;7.00;99.90;;;;;;5012470;28;20097;-80
2022/04/19 05:55:34;;;;;;;11.02;6.43;;;7.10;99.90;;;;;;5012272;28;20100;-81
2022/04/19 05:57:59;;;;;;;11.02;6.72;;;7.20;99.90;;;;;;5012612;28;20137;-81
2022/04/19 06:00:25;;;;;;;9.00;6.55;;;7.30;99.90;;;;;;4996391;28;20050;-81
2022/04/19 06:05:35;;;;;;;9.35;6.22;;;7.50;99.90;;;;;;4999034;28;20045;-81
2022/04/19 06:08:01;;;;;;;10.95;6.47;;;7.60;99.90;;;;;;5014353;28;20054;-81
2022/04/19 06:10:27;;;;;;;9.60;6.70;;;7.70;99.90;;;;;;5000042;28;20042;-80
2022/04/19 06:12:53;;;;;;;11.52;7.35;;;7.80;99.90;;;;;;5016669;28;20188;-80
2022/04/19 06:15:19;;;;;;;8.23;5.65;;;7.90;99.90;;;;;;5016298;28;20054;-80
2022/04/19 06:17:45;;;;;;;10.93;6.78;;;8.00;99.90;;;;;;5017640;28;20042;-76
2022/04/19 06:20:12;;;;;;;9.80;6.80;;;8.20;99.90;;;;;;5017999;28;20136;-76
2022/04/19 06:22:38;;;;;;;11.43;6.65;;;8.20;99.90;;;;;;5017435;28;20089;-77
2022/04/19 06:25:05;;;;;;;12.23;6.50;;;8.40;99.90;;;;;;5017441;28;20046;-76
2022/04/19 06:27:31;;;;;;;10.75;6.18;;;8.50;99.90;;;;;;5016329;28;20398;-77
2022/04/19 06:29:58;;;;;;;8.02;5.82;;;8.60;99.90;;;;;;5017253;28;20045;-76
2022/04/19 06:32:24;;;;;;;9.52;6.55;;;8.70;99.90;;;;;;5016072;28;20089;-76
2022/04/19 06:34:52;;;;;;;9.40;6.22;;;8.90;99.90;;;;;;4999576;28;20061;-76
2022/04/19 06:37:19;;;;;;;9.02;6.40;;;9.00;99.90;;;;;;5017033;28;20089;-77
2022/04/19 06:39:45;;;;;;;11.32;6.32;;;9.10;99.90;;;;;;5017127;28;20046;-76
2022/04/19 06:42:11;;;;;;;10.75;6.50;;;9.20;99.90;;;;;;5017000;28;20545;-76
2022/04/19 06:44:37;;;;;;;10.75;6.43;;;9.30;99.90;;;;;;5016083;28;20104;-77
2022/04/19 06:47:03;;;;;;;10.57;6.50;;;9.40;99.90;;;;;;5016063;28;20050;-77
2022/04/19 06:49:28;;;;;;;10.32;6.40;;;9.50;99.90;;;;;;5017082;28;20394;-76
2022/04/19 06:51:54;;;;;;;9.55;6.07;;;9.70;99.90;;;;;;5015977;28;20050;-76
2022/04/19 06:54:20;;;;;;;9.50;6.18;;;9.70;99.90;;;;;;5016470;28;20057;-76
2022/04/19 06:56:46;;;;;;;9.27;6.30;;;9.80;99.90;;;;;;5016864;28;20049;-77
2022/04/19 06:59:12;;;;;;;8.43;5.85;;;10.00;99.90;;;;;;5016754;28;20072;-76
2022/04/19 07:01:40;;;;;;;9.20;5.95;;;10.10;99.90;;;;;;5016527;28;20435;-76
2022/04/19 07:04:08;;;;;;;7.82;5.28;;;10.30;99.90;;;;;;5015486;28;20510;-76
2022/04/19 07:06:34;;;;;;;9.40;5.60;;;10.40;99.90;;;;;;5015745;28;20447;-76
2022/04/19 07:09:00;;;;;;;10.43;5.95;;;10.50;99.90;;;;;;5016605;28;20111;-76
2022/04/19 07:11:25;;;;;;;7.68;5.63;;;10.70;99.90;;;;;;5016503;28;20046;-76
2022/04/19 07:13:52;;;;;;;9.30;6.03;;;10.80;99.90;;;;;;4999196;28;20050;-76
2022/04/19 07:16:17;;;;;;;8.35;5.00;;;10.90;99.90;;;;;;5016466;28;20050;-77
2022/04/19 07:18:43;;;;;;;7.82;5.22;;;11.00;99.90;;;;;;5016638;28;20061;-76
2022/04/19 07:26:47;;;;;;;7.68;5.15;;;11.30;99.90;;;;;;5016539;28;20049;-76
2022/04/19 07:29:15;;;;;;;;;;;11.50;99.90;;;;;;5017119;28;20428;-76
2022/04/19 07:31:43;;;;;;;9.27;5.40;;;11.60;99.90;;;;;;5015881;28;19971;-76
2022/04/19 07:34:10;;;;;;;8.52;5.55;;;11.70;99.90;;;;;;5016076;28;20086;-77
2022/04/19 07:36:39;;;;;;;8.38;5.10;;;11.90;99.90;;;;;;5016317;28;20502;-77
2022/04/19 07:39:09;;;;;;;6.93;4.45;;;12.00;99.90;;;;;;5016503;28;20056;-76
2022/04/19 07:41:35;;;;;;;7.80;4.80;;;12.10;99.90;;;;;;5015023;28;20057;-77
2022/04/19 07:44:01;;;;;;;9.63;5.50;;;12.20;99.90;;;;;;5016452;28;20139;-77
2022/04/19 07:46:28;;;;;;;8.82;5.50;;;12.30;99.90;;;;;;5015989;28;20038;-79
2022/04/19 07:48:54;;;;;;;9.02;5.72;;;12.40;99.90;;;;;;5014895;28;20054;-77
2022/04/19 07:51:20;;;;;;;10.75;6.22;;;12.40;99.90;;;;;;5015741;28;20052;-78
2022/04/19 07:53:46;;;;;;;10.90;6.28;;;12.50;99.90;;;;;;5014309;28;20053;-79
2022/04/19 07:56:12;;;;;;;9.75;5.57;;;12.60;99.90;;;;;;5015734;28;20057;-78
2022/04/19 07:58:38;;;;;;;8.98;5.57;;;12.70;99.90;;;;;;5014625;28;20104;-78
2022/04/19 08:01:04;;;;;;;8.85;5.90;;;12.80;99.90;;;;;;5014606;28;20042;-77
2022/04/19 08:03:30;;;;;;;8.55;5.00;;;12.90;99.90;;;;;;5015486;28;20048;-79
2022/04/19 08:05:56;;;;;;;8.60;5.10;;;12.90;99.90;;;;;;5016251;28;20041;-76
2022/04/19 08:08:22;;;;;;;6.40;4.82;;;13.00;99.90;;;;;;5014539;28;20060;-75
2022/04/19 08:10:49;;;;;;;9.00;5.15;;;13.10;99.90;;;;;;4998186;28;20065;-76
2022/04/19 08:13:15;;;;;;;7.05;4.47;;;13.10;99.90;;;;;;5014382;28;20089;-76
2022/04/19 08:15:41;;;;;;;5.97;3.97;;;13.20;99.90;;;;;;5014344;28;20115;-75
2022/04/19 08:18:07;;;;;;;6.88;4.55;;;13.20;99.90;;;;;;5014269;28;20073;-75
2022/04/19 08:20:33;;;;;;;8.30;4.28;;;13.30;99.90;;;;;;5014518;28;20054;-75
2022/04/19 08:22:59;;;;;;;6.47;4.15;;;13.40;99.90;;;;;;5015818;28;20042;-75
2022/04/19 08:25:25;;;;;;;6.03;4.22;;;13.50;99.90;;;;;;5015694;28;20187;-75
2022/04/19 08:27:52;;;;;;;7.20;4.15;;;13.60;99.90;;;;;;5013793;28;20084;-75
2022/04/19 08:30:19;;;;;;;6.00;4.20;;;13.70;99.90;;;;;;5015578;28;20050;-75
2022/04/19 08:32:45;;;;;;;7.47;3.75;;;13.80;99.90;;;;;;5013947;28;20050;-74
2022/04/19 08:35:12;;;;;;;6.82;3.90;;;14.00;99.90;;;;;;5014971;28;20065;-75
2022/04/19 08:37:38;;;;;;;5.70;3.80;;;14.10;99.90;;;;;;5014952;28;20104;-75
2022/04/19 08:40:10;;;;;;;5.05;3.53;;;14.20;99.90;;;;;;5013933;28;20045;-75
2022/04/19 08:42:37;;;;;;;5.57;3.40;;;14.30;99.90;;;;;;5014710;28;20081;-75
2022/04/19 08:45:04;;;;;;;5.95;3.80;;;14.30;99.90;;;;;;5013772;28;20057;-75
2022/04/19 08:47:32;;;;;;;6.78;3.45;;;14.40;99.90;;;;;;5014452;28;20398;-75
2022/04/19 08:50:01;;;;;;;6.45;3.42;;;14.50;99.90;;;;;;5013435;28;20060;-75
2022/04/19 08:52:27;;;;;;;5.60;3.40;;;14.60;99.90;;;;;;5013465;28;20046;-74
2022/04/19 08:57:38;;;;;;;7.70;3.25;;;14.80;99.90;;;;;;5015312;28;20062;-75
2022/04/19 09:00:06;;;;;;;4.55;2.83;;;14.90;99.90;;;;;;5014190;28;20512;-77
2022/04/19 09:02:34;;;;;;;5.18;3.50;;;15.00;99.90;;;;;;4997854;28;20061;-77
2022/04/19 09:05:17;;;;;;;5.32;2.80;;;15.10;99.90;;;;;;5013549;28;20103;-77
2022/04/19 09:07:50;;;;;;;6.25;2.50;;;15.20;99.90;;;;;;5013683;28;20050;-77
2022/04/19 09:10:30;;;;;;;6.60;2.95;;;15.20;99.90;;;;;;5015199;28;20049;-77
2022/04/19 09:13:00;;;;;;;4.00;2.35;;;15.30;99.90;;;;;;5013953;28;20057;-77
2022/04/19 09:15:52;;;;;;;3.33;1.95;;;15.50;99.90;;;;;;5014263;28;20049;-79
2022/04/19 09:18:30;;;;;;;3.70;2.15;;;15.60;99.90;;;;;;5011569;28;20062;-75
2022/04/19 09:21:06;;;;;;;4.47;2.13;;;15.60;99.90;;;;;;5014951;28;20128;-75
2022/04/19 09:23:34;;;;;;;4.50;2.33;;;15.60;99.90;;;;;;5014853;28;20048;-76
2022/04/19 09:26:01;;;;;;;4.70;2.15;;;15.70;99.90;;;;;;5013188;28;20449;-77
2022/04/19 09:28:28;;;;;;;4.10;2.80;;;15.80;99.90;;;;;;5013333;28;20057;-78
2022/04/19 09:30:59;;;;;;;3.45;2.33;;;15.90;99.90;;;;;;5012796;28;20495;-75
2022/04/19 09:33:29;;;;;;;3.97;1.95;;;15.90;99.90;;;;;;5013059;28;20083;-77
2022/04/19 09:36:03;;;;;;;2.75;1.88;;;16.00;99.90;;;;;;5014059;28;20049;-76
2022/04/19 09:38:42;;;;;;;2.53;1.38;;;16.10;99.90;;;;;;5012943;28;20417;-75
2022/04/19 09:41:10;;;;;;;2.97;1.63;;;16.20;99.90;;;;;;5014494;28;20054;-76
2022/04/19 09:43:37;;;;;;;2.53;1.40;;;16.40;99.90;;;;;;5013500;28;20124;-76
2022/04/19 09:46:07;;;;;;;3.45;1.80;;;16.40;99.90;;;;;;5013822;28;20050;-76
2022/04/19 09:48:34;;;;;;;3.50;1.73;;;16.50;99.90;;;;;;5013800;28;20115;-76
2022/04/19 09:51:11;;;;;;;3.50;1.40;;;16.40;99.90;;;;;;5012825;28;20054;-78
2022/04/19 09:53:47;;;;;;;3.47;1.70;;;16.40;99.90;;;;;;4996229;28;20089;-79
2022/04/19 09:56:16;;;;;;;2.50;1.60;;;16.50;99.90;;;;;;5012808;28;20042;-77
2022/04/19 09:58:46;;;;;;;2.83;1.75;;;16.60;99.90;;;;;;5012647;28;20073;-77
2022/04/19 10:09:33;;;;;;;4.53;1.67;;;16.70;99.90;;;;;;4998450;28;20049;-76
2022/04/19 10:12:01;;;;;;;3.00;1.60;;;16.80;99.90;;;;;;4996246;28;20490;-75
2022/04/19 10:14:29;;;;;;;3.88;1.77;;;16.80;99.90;;;;;;5012825;28;20085;-76
2022/04/19 10:16:57;;;;;;;3.60;1.70;;;17.00;99.90;;;;;;5013540;28;20089;-75
2022/04/19 10:19:23;;;;;;;2.55;1.60;;;17.10;99.90;;;;;;5013190;28;20457;-77
2022/04/19 10:21:51;;;;;;;2.67;1.65;;;17.10;99.90;;;;;;5013432;28;20054;-74
2022/04/19 10:24:17;;;;;;;2.72;1.73;;;17.10;99.90;;;;;;5013405;28;20124;-77
2022/04/19 10:26:46;;;;;;;2.70;1.63;;;17.20;99.90;;;;;;5012276;28;20050;-75
2022/04/19 10:29:31;;;;;;;3.60;1.40;;;17.30;99.90;;;;;;5013018;28;20491;-75
2022/04/19 10:32:01;;;;;;;3.22;1.30;;;17.40;99.90;;;;;;5013458;28;20046;-74
2022/04/19 10:34:34;;;;;;;2.85;1.70;;;17.50;99.90;;;;;;5013379;28;20457;-74
2022/04/19 10:37:16;;;;;;;3.40;1.50;;;17.60;99.90;;;;;;5012383;28;20046;-75
2022/04/19 10:39:49;;;;;;;3.90;1.52;;;17.70;99.90;;;;;;5013281;28;20046;-75
2022/04/19 10:42:29;;;;;;;3.13;1.70;;;17.70;99.90;;;;;;5013741;28;20137;-75
2022/04/19 10:44:55;;;;;;;3.13;1.60;;;17.80;99.90;;;;;;5013286;28;20050;-75
2022/04/19 10:47:23;;;;;;;3.08;1.80;;;17.80;99.90;;;;;;5013770;28;20478;-74
2022/04/19 10:50:04;;;;;;;2.63;1.33;;;17.90;99.90;;;;;;5012781;28;20365;-74
2022/04/19 10:52:36;;;;;;;3.63;1.40;;;18.10;99.90;;;;;;5012954;28;20062;-75
2022/04/19 10:55:07;;;;;;;2.17;1.40;;;18.10;99.90;;;;;;5014911;28;20053;-76
2022/04/19 11:00:35;;;;;;;2.45;1.50;;;18.10;99.90;;;;;;5016845;28;20068;-75
2022/04/19 11:03:02;;;;;;;4.03;1.50;;;18.10;99.90;;;;;;5016804;28;20058;-76
2022/04/19 11:05:36;;;;;;;2.55;1.60;;;18.00;99.90;;;;;;5017199;28;20058;-75
2022/04/19 11:08:26;;;;;;;2.55;1.40;;;17.90;99.90;;;;;;5015946;28;20071;-74
2022/04/19 11:11:21;;;;;;;2.63;1.23;;;17.90;99.90;;;;;;5015519;28;20402;-75
2022/04/19 11:14:19;;;;;;;2.92;1.73;;;18.00;99.90;;;;;;5016624;28;20088;-74
2022/04/19 11:16:49;;;;;;;2.60;1.50;;;18.10;99.90;;;;;;5015696;28;20054;-75
2022/04/19 11:19:25;;;;;;;2.78;1.60;;;18.10;99.90;;;;;;5016881;28;20050;-75
2022/04/19 11:21:58;;;;;;;3.72;1.63;;;18.10;99.90;;;;;;5016681;28;20356;-76
2022/04/19 11:25:01;;;;;;;3.97;1.80;;;18.10;99.90;;;;;;5015358;28;20041;-76
2022/04/19 11:27:52;;;;;;;2.38;1.38;;;18.10;99.90;;;;;;5016162;28;20143;-75
2022/04/19 11:30:18;;;;;;;2.88;1.48;;;18.10;99.90;;;;;;5014998;28;20058;-76
2022/04/19 11:32:49;;;;;;;2.63;1.20;;;18.20;99.90;;;;;;5015529;28;20073;-76
2022/04/19 11:35:16;;;;;;;2.67;1.40;;;18.20;99.90;;;;;;5016433;28;20121;-73
2022/04/19 11:37:43;;;;;;;4.18;1.50;;;18.20;99.90;;;;;;5016577;28;20045;-74
2022/04/19 11:48:47;;;;;;;3.78;1.90;;;18.40;99.90;;;;;;5016690;28;20046;-75
2022/04/19 11:51:14;;;;;;;2.40;1.50;;;18.50;99.90;;;;;;5016357;28;20475;-75
2022/04/19 11:53:41;;;;;;;3.75;1.60;;;18.50;99.90;;;;;;4998568;28;20065;-74
2022/04/19 11:56:07;;;;;;;2.05;1.35;;;18.60;99.90;;;;;;5015588;28;20049;-77
2022/04/19 11:58:35;;;;;;;2.13;1.23;;;18.70;99.90;;;;;;5014875;28;20422;-76
2022/04/19 12:01:06;;;;;;;3.42;1.40;;;18.80;99.90;;;;;;5015736;28;20169;-76
2022/04/19 12:03:38;;;;;;;3.63;2.17;;;18.80;99.90;;;;;;5015602;28;20045;-75
2022/04/19 12:06:08;;;;;;;2.72;1.60;;;18.90;99.90;;;;;;4999011;28;20125;-79
2022/04/19 12:08:45;;;;;;;3.00;1.70;;;19.00;99.90;;;;;;5015559;28;20060;-75
2022/04/19 12:11:16;;;;;;;3.53;1.75;;;19.00;99.90;;;;;;5015459;28;20045;-76
2022/04/19 12:13:44;;;;;;;2.88;1.88;;;19.00;99.90;;;;;;5014945;28;20517;-74
2022/04/19 12:16:30;;;;;;;3.38;1.77;;;19.00;99.90;;;;;;5015381;28;20050;-78
2022/04/19 12:18:59;;;;;;;4.80;2.00;;;19.20;99.90;;;;;;5015413;28;20093;-76
2022/04/19 12:21:45;;;;;;;3.28;1.60;;;19.30;99.90;;;;;;5015261;28;20050;-78
2022/04/19 12:24:24;;;;;;;3.33;2.00;;;19.50;99.90;;;;;;5014253;28;20057;-74
2022/04/19 12:27:05;;;;;;;3.20;2.08;;;19.50;99.90;;;;;;5015286;28;20046;-75
2022/04/19 12:29:32;;;;;;;3.40;1.75;;;19.70;99.90;;;;;;5015078;28;20054;-74
2022/04/19 12:32:00;;;;;;;2.70;2.03;;;19.80;99.90;;;;;;5015097;28;20218;-76
2022/04/19 12:34:39;;;;;;;4.65;2.15;;;19.80;99.90;;;;;;5015261;28;20069;-72
2022/04/19 12:37:13;;;;;;;4.88;2.30;;;19.90;99.90;;;;;;5015028;28;20038;-73
2022/04/19 12:39:40;;;;;;;4.15;2.03;;;20.00;99.90;;;;;;5015378;28;20080;-74
2022/04/19 12:42:07;;;;;;;4.57;1.80;;;20.10;99.90;;;;;;5014780;28;20125;-74
2022/04/19 12:44:37;;;;;;;4.03;2.17;;;20.40;99.90;;;;;;5015312;28;20399;-73
2022/04/19 12:47:25;;;;;;;3.95;2.00;;;20.80;99.90;;;;;;5015541;28;20172;-73
2022/04/19 12:49:51;;;;;;;3.63;1.90;;;21.10;98.50;;;;;;5014741;28;20460;-73
2022/04/19 12:52:16;;;;;;;3.17;2.10;;;21.10;99.20;;;;;;5014753;28;20108;-74
2022/04/19 12:54:44;;;;;;;3.83;2.08;;;21.30;98.50;;;;;;5013534;28;20085;-74
2022/04/19 12:59:44;;;;;;;3.58;2.40;;;21.70;96.20;;;;;;5014837;28;20050;-74
2022/04/19 13:02:10;;;;;;;3.88;2.30;;;21.90;97.00;;;;;;5013428;28;20052;-75
2022/04/19 13:04:36;;;;;;;4.20;2.28;;;22.10;97.40;;;;;;5014161;28;20499;-75
2022/04/19 13:12:31;;;;;;;2.97;1.95;;;22.80;95.50;;;;;;5014267;28;20053;-74
2022/04/19 13:14:58;;;;;;;3.58;2.10;;;23.00;95.40;;;;;;5014289;28;20046;-73
2022/04/19 13:17:26;;;;;;;6.57;2.30;;;23.20;94.30;;;;;;5013626;28;20046;-73
2022/04/19 13:19:52;;;;;;;2.95;1.88;;;23.40;92.70;;;;;;5014854;28;20057;-74
2022/04/19 13:22:18;;;;;;;5.60;2.00;;;23.40;92.40;;;;;;5014620;28;20041;-73
2022/04/19 13:24:44;;;;;;;3.15;1.70;;;23.40;91.70;;;;;;5014364;28;20103;-73
2022/04/19 13:27:11;;;;;;;2.88;1.88;;;23.20;91.00;;;;;;5013737;28;20049;-76
2022/04/19 13:29:39;;;;;;;3.47;1.95;;;22.60;90.50;;;;;;5013935;28;20084;-74
2022/04/19 13:32:06;;;;;;;3.50;1.63;;;22.00;89.90;;;;;;5014090;28;20502;-74
2022/04/19 13:34:33;;;;;;;3.42;1.80;;;21.50;90.00;;;;;;5014211;28;20113;-73
2022/04/19 13:37:00;;;;;;;3.17;1.80;;;21.10;89.60;;;;;;5012899;28;20128;-76
2022/04/19 13:39:26;;;;;;;4.32;2.00;;;20.90;90.00;;;;;;5013871;28;20044;-75
2022/04/19 13:41:52;;;;;;;4.35;1.90;;;20.70;89.70;;;;;;5013698;28;20045;-75
2022/04/19 13:44:19;;;;;;;6.07;2.17;;;20.60;90.20;;;;;;5012800;28;20057;-76
2022/04/19 13:46:45;;;;;;;2.88;1.70;;;20.40;89.70;;;;;;5013128;28;20447;-77